Time;durP1;ratioP1;P1;durP2;ratioP2;P2;SDS_P1;SDS_P2;PMS_P1;PMS_P2;Temp;Humidity;BMP_temperature;BMP_pressure;BME280_temperature;BME280_humidity;BME280_pressure;Samples;Min_cycle;Max_cycle;Signal;HPM_P1;HPM_P2
2021/07/11 00:01:12;;;;;;;;;;;;;;;24.60;67.56;101311.03;1772101;81;20246;-72
2021/07/11 00:03:43;;;;;;;;;;;;;;;24.60;67.93;101307.34;1736226;83;20197;-71
2021/07/11 00:06:16;;;;;;;;;;;;;;;24.60;68.29;101303.08;1772420;81;20241;-72
2021/07/11 00:08:49;;;;;;;;;;;;;;;24.60;68.57;101304.51;1777404;79;20355;-68
2021/07/11 00:11:21;;;;;;;;;;;;;;;24.59;68.68;101305.69;1775492;81;20180;-70
2021/07/11 00:14:00;;;;;;;;;;;;;;;24.54;69.08;101309.52;1741793;82;20196;-70
2021/07/11 00:16:31;;;;;;;;;;;;;;;24.50;69.42;101306.28;1769992;81;20259;-69
2021/07/11 00:19:04;;;;;;;;;;;;;;;24.45;69.68;101301.59;1772346;81;20255;-70
2021/07/11 00:21:35;;;;;;;;;;;;;;;24.42;69.79;101300.02;1772680;81;20195;-69
2021/07/11 00:24:06;;;;;;;;;;;;;;;24.41;69.77;101298.35;1764092;81;20258;-67
2021/07/11 00:26:38;;;;;;;;;;;;;;;24.40;69.81;101298.11;1745097;78;20312;-72
2021/07/11 00:29:10;;;;;;;;;;;;;;;24.38;69.92;101303.30;1679481;85;20597;-70
2021/07/11 00:31:43;;;;;;;;;;;;;;;24.35;70.00;101299.13;1685592;83;20557;-72
2021/07/11 00:34:15;;;;;;;;;;;;;;;24.33;70.22;101294.35;1681086;85;20220;-72
2021/07/11 00:36:47;;;;;;;;;;;;;;;24.32;70.47;101294.71;1661585;85;20257;-73
2021/07/11 00:39:20;;;;;;;;;;;;;;;24.29;70.70;101291.11;1686338;85;20200;-72
2021/07/11 00:41:52;;;;;;;;;;;;;;;24.24;70.91;101292.70;1682017;85;20177;-70
2021/07/11 00:44:26;;;;;;;;;;;;;;;24.22;71.00;101289.38;1683004;85;20183;-67
2021/07/11 00:46:59;;;;;;;;;;;;;;;24.22;71.04;101293.06;1655258;87;20205;-74
2021/07/11 00:49:32;;;;;;;;;;;;;;;24.22;71.08;101307.27;1669172;85;20545;-74
2021/07/11 00:52:05;;;;;;;;;;;;;;;24.23;70.96;101304.66;1685989;85;20204;-75
2021/07/11 00:54:36;;;;;;;;;;;;;;;24.27;70.96;101304.22;1714021;84;20601;-83
2021/07/11 00:57:09;;;;;;;;;;;;;;;24.29;70.99;101299.62;1713704;84;20184;-76
2021/07/11 00:59:43;;;;;;;;;;;;;;;24.27;70.68;101300.56;1713781;84;20257;-72
2021/07/11 01:02:26;;;;;;;;;;;;;;;24.24;70.65;101300.65;1688044;84;20189;-73
2021/07/11 01:05:10;;;;;;;;;;;;;;;24.21;70.56;101290.55;1714460;84;20184;-75
2021/07/11 01:08:04;;;;;;;;;;;;;;;24.15;70.93;101305.49;1686737;85;20302;-71
2021/07/11 01:10:51;;;;;;;;;;;;;;;24.08;70.99;101302.33;1712224;84;20601;-74
2021/07/11 01:13:24;;;;;;;;;;;;;;;24.03;71.10;101277.55;1710273;84;20188;-71
2021/07/11 01:16:01;;;;;;;;;;;;;;;24.00;71.15;101277.64;1713761;84;20550;-72
2021/07/11 01:18:38;;;;;;;;;;;;;;;23.93;71.16;101292.08;1713636;84;20264;-72
2021/07/11 01:21:12;;;;;;;;;;;;;;;23.90;71.06;101282.83;1714474;84;20245;-70
2021/07/11 01:24:00;;;;;;;;;;;;;;;23.87;71.19;101270.68;1715792;84;20271;-75
2021/07/11 01:26:33;;;;;;;;;;;;;;;23.88;71.36;101285.15;1716191;84;20256;-70
2021/07/11 01:29:06;;;;;;;;;;;;;;;23.85;71.42;101282.97;1713598;83;20597;-74
2021/07/11 01:31:38;;;;;;;;;;;;;;;23.83;71.49;101280.45;1713835;84;20249;-74
2021/07/11 01:34:10;;;;;;;;;;;;;;;23.80;71.50;101274.05;1713778;84;20266;-73
2021/07/11 01:36:42;;;;;;;;;;;;;;;23.80;71.57;101276.88;1687542;84;20260;-74
2021/07/11 01:39:16;;;;;;;;;;;;;;;23.82;71.73;101273.11;1713675;84;20216;-75
2021/07/11 01:41:49;;;;;;;;;;;;;;;23.83;71.74;101277.61;1713790;84;20184;-72
2021/07/11 01:44:41;;;;;;;;;;;;;;;23.85;71.73;101285.80;1713670;84;20208;-74
2021/07/11 01:47:14;;;;;;;;;;;;;;;23.84;71.62;101289.20;1714164;84;20256;-74
2021/07/11 01:49:46;;;;;;;;;;;;;;;23.82;71.46;101281.63;1662803;85;20664;-74
2021/07/11 01:52:18;;;;;;;;;;;;;;;23.80;71.64;101274.61;1681158;85;20216;-74
2021/07/11 01:54:53;;;;;;;;;;;;;;;23.76;71.84;101276.44;1665644;84;20623;-77
2021/07/11 01:57:27;;;;;;;;;;;;;;;23.77;71.81;101283.81;1680746;85;20195;-72
2021/07/11 02:00:00;;;;;;;;;;;;;;;23.78;71.73;101286.89;1682489;85;20195;-73
2021/07/11 02:02:48;;;;;;;;;;;;;;;23.79;71.63;101285.15;1689805;84;20532;-72
2021/07/11 02:05:25;;;;;;;;;;;;;;;23.76;71.60;101287.22;1708721;84;20260;-70
2021/07/11 02:07:58;;;;;;;;;;;;;;;23.73;71.79;101289.31;1712612;84;20637;-73
2021/07/11 02:10:33;;;;;;;;;;;;;;;23.72;71.80;101286.80;1718752;81;20246;-72
2021/07/11 02:13:13;;;;;;;;;;;;;;;23.67;71.97;101285.55;1717919;83;20190;-68
2021/07/11 02:15:46;;;;;;;;;;;;;;;23.63;72.02;101290.20;1720308;83;20257;-71
2021/07/11 02:18:23;;;;;;;;;;;;;;;23.58;72.09;101287.56;1709451;83;20625;-74
2021/07/11 02:20:56;;;;;;;;;;;;;;;23.51;72.40;101296.55;1655051;87;20198;-76
2021/07/11 02:23:30;;;;;;;;;;;;;;;23.45;72.60;101291.36;1690642;85;20191;-73
2021/07/11 02:26:02;;;;;;;;;;;;;;;23.41;72.84;101297.46;1690677;85;20256;-75
2021/07/11 02:28:35;;;;;;;;;;;;;;;23.39;72.95;101297.78;1690754;85;20284;-77
2021/07/11 02:31:11;;;;;;;;;;;;;;;23.38;73.10;101298.11;1690877;85;20183;-76
2021/07/11 02:33:42;;;;;;;;;;;;;;;23.35;73.23;101295.34;1690719;85;20176;-76
2021/07/11 02:36:16;;;;;;;;;;;;;;;23.31;73.61;101291.53;1690678;85;20263;-75
2021/07/11 02:39:00;;;;;;;;;;;;;;;23.26;73.83;101292.24;1690782;85;20185;-75
2021/07/11 02:41:35;;;;;;;;;;;;;;;23.24;74.03;101288.34;1717491;80;20222;-74
2021/07/11 02:44:11;;;;;;;;;;;;;;;23.25;74.00;101291.43;1707628;83;20177;-75
2021/07/11 02:46:48;;;;;;;;;;;;;;;23.27;73.99;101288.23;1748912;82;20328;-73
2021/07/11 02:49:24;;;;;;;;;;;;;;;23.28;73.91;101287.09;1712173;83;20282;-74
2021/07/11 02:52:00;;;;;;;;;;;;;;;23.31;73.82;101287.84;1724066;82;20221;-74
2021/07/11 02:54:36;;;;;;;;;;;;;;;23.35;73.83;101295.95;1668164;83;20250;-73
2021/07/11 02:57:08;;;;;;;;;;;;;;;23.41;73.70;101297.46;1718990;83;20228;-75
2021/07/11 02:59:44;;;;;;;;;;;;;;;23.48;73.42;101301.45;1748541;81;20206;-74
2021/07/11 03:02:17;;;;;;;;;;;;;;;23.55;72.75;101301.82;1734934;83;20258;-77
2021/07/11 03:04:50;;;;;;;;;;;;;;;23.59;72.49;101297.73;1695761;83;20233;-75
2021/07/11 03:07:23;;;;;;;;;;;;;;;23.61;72.31;101294.82;1718821;83;20188;-74
2021/07/11 03:09:55;;;;;;;;;;;;;;;23.61;72.28;101303.90;1690133;85;20194;-74
2021/07/11 03:12:29;;;;;;;;;;;;;;;23.61;72.15;101289.72;1689967;85;20187;-78
2021/07/11 03:15:01;;;;;;;;;;;;;;;23.60;72.04;101303.66;1706147;84;20295;-73
2021/07/11 03:17:33;;;;;;;;;;;;;;;23.61;71.95;101300.49;1690246;85;20293;-84
2021/07/11 03:20:07;;;;;;;;;;;;;;;23.64;71.92;101311.16;1667506;85;20209;-85
2021/07/11 03:22:42;;;;;;;;;;;;;;;23.68;71.80;101304.23;1709007;83;20253;-74
2021/07/11 03:25:15;;;;;;;;;;;;;;;23.72;71.60;101308.08;1718668;83;20560;-73
2021/07/11 03:27:48;;;;;;;;;;;;;;;23.74;71.38;101317.94;1718849;83;20184;-74
2021/07/11 03:30:21;;;;;;;;;;;;;;;23.78;71.25;101308.17;1718730;83;20219;-74
2021/07/11 03:32:59;;;;;;;;;;;;;;;23.80;71.09;101310.08;1718663;83;20275;-73
2021/07/11 03:35:35;;;;;;;;;;;;;;;23.83;70.60;101305.17;1718842;83;20191;-74
2021/07/11 03:38:11;;;;;;;;;;;;;;;23.84;70.45;101301.16;1748688;82;20258;-73
2021/07/11 03:40:54;;;;;;;;;;;;;;;23.86;70.28;101308.17;1748386;82;20590;-74
2021/07/11 03:43:27;;;;;;;;;;;;;;;23.91;70.09;101305.78;1708705;83;20544;-74
2021/07/11 03:46:00;;;;;;;;;;;;;;;23.93;69.99;101304.84;1706589;83;20265;-83
2021/07/11 03:48:34;;;;;;;;;;;;;;;23.99;69.77;101307.77;1704727;84;20182;-79
2021/07/11 03:51:06;;;;;;;;;;;;;;;24.06;69.55;101313.20;1706213;84;20326;-79
2021/07/11 03:53:41;;;;;;;;;;;;;;;24.12;68.87;101313.84;1706412;84;20282;-73
2021/07/11 03:56:12;;;;;;;;;;;;;;;24.14;68.53;101305.25;1705670;84;20254;-83
2021/07/11 03:58:45;;;;;;;;;;;;;;;24.16;68.35;101309.17;1705243;84;20259;-77
2021/07/11 04:01:16;;;;;;;;;;;;;;;24.18;68.40;101302.56;1705318;84;20219;-76
2021/07/11 04:03:48;;;;;;;;;;;;;;;24.21;68.39;101307.59;1691111;84;20287;-77
2021/07/11 04:06:21;;;;;;;;;;;;;;;24.26;68.38;101311.68;1705099;84;20187;-79
2021/07/11 04:08:56;;;;;;;;;;;;;;;24.33;67.93;101311.99;1709908;80;20289;-78
2021/07/11 04:11:28;;;;;;;;;;;;;;;24.40;67.57;101316.57;1712050;84;20186;-73
2021/07/11 04:13:59;;;;;;;;;;;;;;;24.49;67.21;101313.11;1712319;84;20260;-77
2021/07/11 04:16:32;;;;;;;;;;;;;;;24.68;67.14;101320.72;1744083;82;20285;-76
2021/07/11 04:19:04;;;;;;;;;;;;;;;24.97;66.37;101310.22;1718201;83;20194;-77
2021/07/11 04:21:36;;;;;;;;;;;;;;;25.29;65.49;101307.33;1712284;84;20283;-76
2021/07/11 04:24:09;;;;;;;;;;;;;;;25.66;64.48;101307.83;1712640;84;20541;-77
2021/07/11 04:26:41;;;;;;;;;;;;;;;26.06;63.45;101302.73;1743000;82;20210;-77
2021/07/11 04:29:12;;;;;;;;;;;;;;;26.48;62.46;101306.33;1730752;83;20290;-75
2021/07/11 04:31:45;;;;;;;;;;;;;;;26.92;61.03;101306.33;1726304;83;20792;-74
2021/07/11 04:34:25;;;;;;;;;;;;;;;27.36;59.78;101301.73;1726026;83;20249;-74
2021/07/11 04:37:01;;;;;;;;;;;;;;;27.79;59.04;101303.59;1725298;83;20218;-77
2021/07/11 04:39:34;;;;;;;;;;;;;;;28.29;57.82;101299.58;1721440;80;20650;-76
2021/07/11 04:42:06;;;;;;;;;;;;;;;28.73;56.14;101296.97;1710711;83;20247;-77
2021/07/11 04:44:39;;;;;;;;;;;;;;;29.14;55.08;101297.89;1712646;83;20258;-75
2021/07/11 04:47:13;;;;;;;;;;;;;;;29.54;53.90;101288.45;1703886;83;20292;-75
2021/07/11 04:49:45;;;;;;;;;;;;;;;29.95;52.30;101300.66;1701570;83;20666;-75
2021/07/11 04:52:18;;;;;;;;;;;;;;;30.29;51.53;101294.66;1711011;83;20331;-76
2021/07/11 04:54:52;;;;;;;;;;;;;;;30.62;50.41;101291.44;1690867;85;20192;-77
2021/07/11 04:57:25;;;;;;;;;;;;;;;30.90;48.51;101289.73;1691750;83;20537;-76
2021/07/11 04:59:57;;;;;;;;;;;;;;;31.13;47.74;101300.01;1694830;83;20189;-75
2021/07/11 05:02:29;;;;;;;;;;;;;;;31.25;47.25;101294.69;1690776;85;20228;-74
2021/07/11 05:05:02;;;;;;;;;;;;;;;31.39;47.34;101284.26;1690829;85;20256;-74
2021/07/11 05:07:33;;;;;;;;;;;;;;;31.58;47.25;101287.60;1706914;80;20593;-73
2021/07/11 05:10:08;;;;;;;;;;;;;;;31.77;47.07;101298.41;1750705;82;20269;-73
2021/07/11 05:12:39;;;;;;;;;;;;;;;32.00;47.03;101299.74;1765176;81;20226;-73
2021/07/11 05:15:12;;;;;;;;;;;;;;;32.18;46.08;101294.45;1765907;81;20183;-78
2021/07/11 05:17:44;;;;;;;;;;;;;;;32.04;46.02;101300.00;1735088;83;20629;-76
2021/07/11 05:20:16;;;;;;;;;;;;;;;31.76;46.21;101297.35;1740215;82;20297;-72
2021/07/11 05:22:47;;;;;;;;;;;;;;;31.58;47.05;101297.07;1772125;81;20572;-74
2021/07/11 05:25:20;;;;;;;;;;;;;;;31.43;46.80;101305.85;1732793;83;20691;-70
2021/07/11 05:27:51;;;;;;;;;;;;;;;31.09;47.22;101311.19;1764215;81;20218;-71
2021/07/11 05:30:23;;;;;;;;;;;;;;;30.68;47.84;101305.72;1761277;81;20211;-71
2021/07/11 05:32:55;;;;;;;;;;;;;;;30.21;48.38;101302.90;1742570;81;20186;-73
2021/07/11 05:35:26;;;;;;;;;;;;;;;29.83;48.78;101306.53;1734013;82;20520;-70
2021/07/11 05:37:58;;;;;;;;;;;;;;;29.43;49.68;101309.44;1730231;83;20190;-70
2021/07/11 05:40:30;;;;;;;;;;;;;;;28.99;50.75;101313.63;1703654;83;20344;-71
2021/07/11 05:43:01;;;;;;;;;;;;;;;28.66;51.66;101313.94;1736129;80;20237;-73
2021/07/11 05:45:34;;;;;;;;;;;;;;;28.39;52.30;101326.84;1744027;82;20543;-72
2021/07/11 05:48:05;;;;;;;;;;;;;;;28.12;52.85;101329.89;1707487;84;20583;-72
2021/07/11 05:50:38;;;;;;;;;;;;;;;27.92;53.60;101333.77;1739696;82;20535;-72
2021/07/11 05:53:15;;;;;;;;;;;;;;;27.71;54.15;101335.91;1703378;84;20251;-74
2021/07/11 05:55:42;;;;;;;;;;;;;;;27.48;54.88;101336.21;1706472;83;20254;-71
2021/07/11 05:58:14;;;;;;;;;;;;;;;27.28;55.52;101338.58;1701266;84;20587;-74
2021/07/11 06:00:47;;;;;;;;;;;;;;;27.08;56.23;101338.07;1705821;83;20239;-75
2021/07/11 06:03:21;;;;;;;;;;;;;;;26.94;56.90;101335.31;1713349;84;20249;-86
2021/07/11 06:05:53;;;;;;;;;;;;;;;26.74;57.59;101334.81;1712146;83;20281;-70
2021/07/11 06:08:25;;;;;;;;;;;;;;;26.64;58.32;101335.25;1694424;84;20259;-72
2021/07/11 06:10:57;;;;;;;;;;;;;;;26.57;58.47;101331.34;1706537;84;20236;-71
2021/07/11 06:13:30;;;;;;;;;;;;;;;26.52;59.05;101333.76;1719795;83;20254;-72
2021/07/11 06:16:04;;;;;;;;;;;;;;;26.50;59.32;101326.16;1724712;83;20201;-70
2021/07/11 06:18:35;;;;;;;;;;;;;;;26.43;58.67;101332.19;1712961;83;20184;-71
2021/07/11 06:21:08;;;;;;;;;;;;;;;26.32;58.62;101329.53;1714551;83;20187;-71
2021/07/11 06:23:40;;;;;;;;;;;;;;;26.16;58.88;101316.53;1711914;83;20564;-71
2021/07/11 06:26:12;;;;;;;;;;;;;;;26.07;59.36;101332.03;1717383;83;20188;-75
2021/07/11 06:28:43;;;;;;;;;;;;;;;26.01;59.76;101332.00;1717423;83;20188;-76
2021/07/11 06:31:15;;;;;;;;;;;;;;;25.98;60.02;101336.98;1717265;83;20318;-75
2021/07/11 06:33:47;;;;;;;;;;;;;;;25.97;60.24;101332.47;1724689;81;20187;-74
2021/07/11 06:36:18;;;;;;;;;;;;;;;25.95;60.81;101339.09;1721506;81;20540;-72
2021/07/11 06:38:50;;;;;;;;;;;;;;;25.92;61.32;101336.95;1717482;81;20264;-76
2021/07/11 06:41:22;;;;;;;;;;;;;;;25.87;61.59;101344.23;1728431;81;20187;-73
2021/07/11 06:43:54;;;;;;;;;;;;;;;25.81;61.96;101339.92;1728518;82;20211;-73
2021/07/11 06:46:26;;;;;;;;;;;;;;;25.78;62.29;101329.25;1728643;81;20181;-75
2021/07/11 06:48:59;;;;;;;;;;;;;;;25.79;61.94;101328.06;1728899;83;20540;-74
2021/07/11 06:51:31;;;;;;;;;;;;;;;25.81;61.89;101322.84;1729085;83;20187;-73
2021/07/11 06:54:03;;;;;;;;;;;;;;;25.81;62.03;101327.97;1729007;81;20598;-77
2021/07/11 06:56:35;;;;;;;;;;;;;;;25.86;62.08;101333.45;1728859;82;20232;-73
2021/07/11 06:59:07;;;;;;;;;;;;;;;25.94;62.96;101329.73;1728912;83;20185;-74
2021/07/11 07:01:39;;;;;;;;;;;;;;;25.97;62.40;101319.05;1728707;81;20539;-71
2021/07/11 07:04:11;;;;;;;;;;;;;;;26.02;61.71;101315.19;1728948;83;20187;-72
2021/07/11 07:06:43;;;;;;;;;;;;;;;26.02;60.23;101308.88;1728886;83;20286;-71
2021/07/11 07:09:16;;;;;;;;;;;;;;;25.98;60.11;101308.51;1729415;83;20207;-72
2021/07/11 07:11:48;;;;;;;;;;;;;;;25.93;60.42;101313.83;1729216;81;20191;-73
2021/07/11 07:14:21;;;;;;;;;;;;;;;25.94;60.95;101307.53;1701311;83;20257;-70
2021/07/11 07:16:52;;;;;;;;;;;;;;;25.95;60.16;101305.77;1729152;83;20338;-70
2021/07/11 07:19:25;;;;;;;;;;;;;;;25.93;60.00;101305.87;1728904;83;20225;-71
2021/07/11 07:21:57;;;;;;;;;;;;;;;25.94;59.64;101311.80;1728869;83;20227;-70
2021/07/11 07:24:28;;;;;;;;;;;;;;;25.96;59.48;101315.16;1728978;82;20181;-71
2021/07/11 07:27:00;;;;;;;;;;;;;;;26.01;58.96;101317.77;1730022;83;20569;-68
2021/07/11 07:29:31;;;;;;;;;;;;;;;26.10;58.73;101315.08;1730046;83;20283;-71
2021/07/11 07:32:03;;;;;;;;;;;;;;;26.18;58.62;101311.34;1728513;81;20237;-71
2021/07/11 07:34:35;;;;;;;;;;;;;;;26.31;58.62;101311.62;1729069;83;20250;-77
2021/07/11 07:37:07;;;;;;;;;;;;;;;26.52;58.46;101308.11;1728780;81;20204;-75
2021/07/11 07:39:39;;;;;;;;;;;;;;;26.82;57.14;101308.81;1729051;83;20301;-74
2021/07/11 07:42:10;;;;;;;;;;;;;;;27.08;55.49;101312.16;1729060;81;20289;-72
2021/07/11 07:44:42;;;;;;;;;;;;;;;27.32;53.83;101297.31;1729002;83;20192;-72
2021/07/11 07:47:14;;;;;;;;;;;;;;;27.67;53.41;101305.59;1729008;83;20185;-76
2021/07/11 07:49:46;;;;;;;;;;;;;;;28.17;51.63;101298.79;1728393;83;20241;-72
2021/07/11 07:52:18;;;;;;;;;;;;;;;28.58;50.97;101303.52;1722140;81;20258;-68
2021/07/11 07:54:49;;;;;;;;;;;;;;;28.83;48.48;101304.17;1729088;82;20269;-74
2021/07/11 07:57:28;;;;;;;;;;;;;;;28.97;49.02;101305.41;1728930;82;20558;-73
2021/07/11 08:00:09;;;;;;;;;;;;;;;29.09;47.89;101298.16;1729066;83;20253;-71
2021/07/11 08:02:42;;;;;;;;;;;;;;;29.24;47.15;101295.91;1728968;83;20245;-73
2021/07/11 08:05:14;;;;;;;;;;;;;;;29.57;46.55;101298.34;1729035;83;20212;-73
2021/07/11 08:07:46;;;;;;;;;;;;;;;29.94;44.43;101296.73;1729143;83;20217;-71
2021/07/11 08:10:18;;;;;;;;;;;;;;;30.20;41.93;101302.05;1729189;83;20258;-69
2021/07/11 08:12:51;;;;;;;;;;;;;;;30.30;41.03;101307.19;1717473;83;20269;-69
2021/07/11 08:15:32;;;;;;;;;;;;;;;30.31;40.26;101299.43;1695206;83;20255;-72
2021/07/11 08:18:05;;;;;;;;;;;;;;;30.35;40.98;101298.29;1725790;83;20227;-72
2021/07/11 08:20:38;;;;;;;;;;;;;;;30.59;41.53;101305.13;1723902;83;20273;-70
2021/07/11 08:23:09;;;;;;;;;;;;;;;30.90;39.91;101303.48;1727655;83;20539;-68
2021/07/11 08:25:42;;;;;;;;;;;;;;;31.16;37.07;101305.56;1727935;83;20562;-72
2021/07/11 08:28:13;;;;;;;;;;;;;;;31.35;37.35;101301.22;1719293;83;20222;-73
2021/07/11 08:30:45;;;;;;;;;;;;;;;31.44;35.60;101301.17;1726635;83;20189;-72
2021/07/11 08:33:17;;;;;;;;;;;;;;;31.41;34.24;101302.55;1724748;83;20187;-73
2021/07/11 08:35:48;;;;;;;;;;;;;;;31.29;34.19;101312.19;1726485;83;20231;-72
2021/07/11 08:38:20;;;;;;;;;;;;;;;31.19;34.36;101306.27;1717957;83;20583;-69
2021/07/11 08:40:52;;;;;;;;;;;;;;;31.11;35.26;101303.03;1721064;83;20208;-73
2021/07/11 08:43:23;;;;;;;;;;;;;;;31.12;36.28;101302.63;1725829;83;20228;-69
2021/07/11 08:45:55;;;;;;;;;;;;;;;31.21;36.94;101301.80;1720267;83;20257;-74
2021/07/11 08:48:27;;;;;;;;;;;;;;;31.36;37.00;101306.55;1717138;83;20269;-70
2021/07/11 08:51:03;;;;;;;;;;;;;;;31.55;37.69;101298.45;1726571;83;20207;-71
2021/07/11 08:53:36;;;;;;;;;;;;;;;31.77;38.29;101301.87;1724965;81;20245;-71
2021/07/11 08:56:22;;;;;;;;;;;;;;;31.91;36.61;101293.47;1728793;83;20236;-70
2021/07/11 08:58:55;;;;;;;;;;;;;;;31.97;36.77;101291.91;1722597;83;20182;-70
2021/07/11 09:01:28;;;;;;;;;;;;;;;32.05;37.01;101298.81;1726469;83;20177;-71
2021/07/11 09:04:02;;;;;;;;;;;;;;;32.10;36.14;101299.07;1723127;83;20568;-70
2021/07/11 09:06:48;;;;;;;;;;;;;;;32.02;36.27;101295.27;1729054;81;20236;-72
2021/07/11 09:09:31;;;;;;;;;;;;;;;31.98;35.94;101297.28;1728719;82;20225;-69
2021/07/11 09:12:08;;;;;;;;;;;;;;;31.97;36.52;101294.80;1728661;83;20186;-70
2021/07/11 09:14:43;;;;;;;;;;;;;;;32.00;36.86;101288.25;1724465;83;20253;-70
2021/07/11 09:17:15;;;;;;;;;;;;;;;32.06;37.02;101293.27;1729024;83;20277;-71
2021/07/11 09:19:49;;;;;;;;;;;;;;;32.13;37.30;101277.54;1719642;81;20234;-71
2021/07/11 09:22:23;;;;;;;;;;;;;;;32.18;37.16;101278.64;1718986;83;20297;-70
2021/07/11 11:33:06;;;;;;;15.48;8.53;;;;;;;31.05;44.24;101262.31;1779102;78;21662;-70
2021/07/11 12:10:13;;;;;;;18.27;9.45;;;;;;;30.27;48.60;101279.88;1788546;78;21197;-67
2021/07/11 12:12:58;;;;;;;21.40;8.90;;;;;;;29.86;49.22;101290.04;1772790;79;21339;-67
2021/07/11 12:15:39;;;;;;;22.10;8.15;;;;;;;29.60;50.00;101281.23;1769956;79;21265;-70
2021/07/11 12:18:11;;;;;;;27.77;8.38;;;;;;;29.49;50.48;101280.15;1737126;81;21345;-74
2021/07/11 12:20:54;;;;;;;22.62;7.83;;;;;;;29.45;48.98;101287.81;1721276;82;21867;-77
2021/07/11 12:23:26;;;;;;;17.27;6.47;;;;;;;29.31;47.90;101283.78;1794416;79;21415;-67
2021/07/11 12:26:03;;;;;;;14.50;6.85;;;;;;;29.02;48.93;101283.67;1719198;81;21176;-74
2021/07/11 12:28:39;;;;;;;12.95;6.72;;;;;;;28.76;49.61;101277.66;1792697;79;21390;-77
2021/07/11 13:10:38;;;;;;;7.87;5.55;;;;;;;30.45;41.60;101179.25;1801239;79;28166;-73
2021/07/11 13:13:28;;;;;;;11.68;6.65;;;;;;;30.51;41.25;101180.59;1715192;83;21372;-67
2021/07/11 13:16:04;;;;;;;13.18;7.50;;;;;;;30.55;40.06;101187.20;1705288;83;21423;-67
2021/07/11 13:18:36;;;;;;;21.30;7.45;;;;;;;30.57;40.11;101179.87;1707782;82;21221;-68
2021/07/11 13:21:10;;;;;;;11.43;7.33;;;;;;;30.60;38.91;101180.55;1738649;82;21213;-69
2021/07/11 13:23:42;;;;;;;12.25;6.20;;;;;;;30.61;38.60;101180.77;1719478;83;21355;-71
2021/07/11 13:26:15;;;;;;;12.78;4.70;;;;;;;30.65;39.15;101187.44;1717968;83;21388;-68
2021/07/11 13:28:47;;;;;;;12.25;4.60;;;;;;;30.69;38.17;101177.45;1717277;83;21771;-71
2021/07/11 13:31:26;;;;;;;6.22;4.42;;;;;;;30.68;37.42;101172.31;1718415;83;21209;-69
2021/07/11 13:33:57;;;;;;;8.90;4.65;;;;;;;30.67;37.72;101175.55;1710964;82;21361;-68
2021/07/11 13:36:30;;;;;;;5.17;4.60;;;;;;;30.65;38.09;101162.22;1737379;82;21359;-70
2021/07/11 13:39:03;;;;;;;;;;;;;;;30.62;38.36;101158.04;1738021;82;21261;-71
2021/07/11 13:41:36;;;;;;;4.67;4.17;;;;;;;30.57;38.38;101167.59;1737151;82;20279;-73
2021/07/11 13:44:08;;;;;;;6.53;5.17;;;;;;;30.50;39.59;101161.11;1735524;81;21347;-68
2021/07/11 13:46:41;;;;;;;7.28;4.92;;;;;;;30.46;39.07;101164.53;1749372;81;21711;-68
2021/07/11 13:49:14;;;;;;;10.38;4.45;;;;;;;30.43;38.93;101161.58;1739792;81;21249;-73
2021/07/11 13:51:47;;;;;;;7.28;4.72;;;;;;;30.41;38.24;101159.11;1723880;81;21448;-71
2021/07/11 13:54:21;;;;;;;8.25;4.20;;;;;;;30.44;36.60;101157.53;1749846;81;21202;-68
2021/07/11 13:56:54;;;;;;;10.65;5.45;;;;;;;30.46;37.13;101168.00;1746460;81;21448;-70
2021/07/11 13:59:41;;;;;;;8.33;5.67;;;;;;;30.50;39.76;101165.41;1857346;76;22282;-67
2021/07/11 14:02:15;;;;;;;10.13;5.45;;;;;;;30.41;41.45;101171.18;1819955;79;21417;-63
2021/07/11 14:04:49;;;;;;;8.90;5.15;;;;;;;30.27;41.88;101176.04;1819683;79;21366;-69
2021/07/11 14:07:23;;;;;;;12.65;4.95;;;;;;;30.10;42.18;101167.96;1822829;77;21347;-71
2021/07/11 14:09:56;;;;;;;11.65;6.15;;;;;;;30.02;42.27;101164.67;1820059;79;21210;-75
2021/07/11 14:12:29;;;;;;;10.20;5.03;;;;;;;29.98;40.05;101163.80;1821416;77;21197;-66
2021/07/11 14:15:05;;;;;;;6.75;5.00;;;;;;;29.98;40.08;101162.37;1820051;77;21272;-69
2021/07/11 14:17:39;;;;;;;6.25;4.67;;;;;;;29.99;40.00;101162.59;1835132;77;21380;-73
2021/07/11 14:20:15;;;;;;;7.15;4.65;;;;;;;30.01;40.16;101158.72;1836615;78;21255;-64
2021/07/11 14:22:47;;;;;;;8.30;5.80;;;;;;;30.04;40.52;101168.02;1833943;77;21399;-74
2021/07/11 14:25:22;;;;;;;6.83;5.10;;;;;;;30.06;41.20;101162.72;1836969;77;21315;-75
2021/07/11 14:27:54;;;;;;;7.28;5.60;;;;;;;30.07;42.17;101164.38;1819830;79;21313;-74
2021/07/11 14:30:27;;;;;;;12.70;5.58;;;;;;;30.06;43.81;101159.01;1820380;77;21417;-73
2021/07/11 14:32:59;;;;;;;7.35;5.55;;;;;;;30.04;44.67;101163.72;1826812;77;21255;-68
2021/07/11 14:35:35;;;;;;;11.83;6.03;;;;;;;30.06;45.39;101153.28;1827386;77;21364;-73
2021/07/11 14:38:07;;;;;;;11.43;5.85;;;;;;;30.07;46.24;101152.91;1823176;77;21779;-67
2021/07/11 14:40:40;;;;;;;10.28;5.85;;;;;;;30.06;46.37;101149.82;1824491;77;21351;-70
2021/07/11 14:43:14;;;;;;;11.28;6.87;;;;;;;30.09;46.32;101140.48;1827939;77;21304;-67
2021/07/11 14:45:46;;;;;;;12.55;6.95;;;;;;;30.11;46.47;101136.65;1826136;77;21285;-76
2021/07/11 14:48:21;;;;;;;15.83;7.17;;;;;;;30.11;45.22;101132.34;1834924;77;21326;-76
2021/07/11 14:50:53;;;;;;;8.95;6.70;;;;;;;30.09;45.66;101136.17;1834408;77;21715;-68
2021/07/11 14:53:26;;;;;;;18.00;7.95;;;;;;;30.07;46.45;101139.20;1773248;80;21328;-69
2021/07/11 14:56:01;;;;;;;10.50;6.58;;;;;;;30.01;47.35;101134.37;1767244;80;21217;-70
2021/07/11 14:58:34;;;;;;;8.95;6.25;;;;;;;29.96;48.32;101137.54;1771010;80;21269;-68
2021/07/11 15:01:06;;;;;;;;;;;;;;;29.89;48.38;101135.97;1831588;78;21202;-72
2021/07/11 15:03:41;;;;;;;18.95;6.85;;;;;;;29.85;48.37;101135.69;1838609;78;20267;-67
2021/07/11 15:06:14;;;;;;;20.70;7.60;;;;;;;29.81;48.41;101134.19;1838811;78;21344;-67
2021/07/11 15:08:48;;;;;;;16.07;6.08;;;;;;;29.80;48.26;101130.26;1838663;78;21320;-71
2021/07/11 15:11:22;;;;;;;11.43;6.40;;;;;;;29.75;46.71;101148.59;1815869;78;21842;-69
2021/07/11 15:13:57;;;;;;;9.83;6.85;;;;;;;29.69;46.95;101160.13;1805460;79;21740;-68
2021/07/11 15:16:30;;;;;;;15.35;7.40;;;;;;;29.62;45.68;101156.28;1804937;79;21721;-67
2021/07/11 15:19:03;;;;;;;18.35;7.92;;;;;;;29.49;45.53;101144.72;1805424;79;21879;-75
2021/07/11 15:21:37;;;;;;;14.90;6.60;;;;;;;29.36;46.23;101166.96;1805301;79;21725;-76
2021/07/11 15:24:09;;;;;;;;;;;;;;;29.24;45.86;101159.94;1808195;79;21318;-75
2021/07/11 15:26:43;;;;;;;7.12;5.75;;;;;;;29.14;46.27;101143.34;1813576;78;20250;-69
2021/07/11 15:29:16;;;;;;;13.30;7.00;;;;;;;29.04;46.34;101152.50;1823970;78;21364;-71
2021/07/11 15:31:50;;;;;;;8.68;7.00;;;;;;;28.98;46.24;101155.42;1808788;78;21214;-70
2021/07/11 15:34:26;;;;;;;11.03;6.97;;;;;;;28.91;46.31;101152.98;1810826;78;21337;-75
2021/07/11 15:37:02;;;;;;;15.83;7.70;;;;;;;28.86;45.80;101154.08;1824137;78;21199;-74
2021/07/11 15:39:36;;;;;;;13.13;6.62;;;;;;;28.85;45.76;101156.71;1767147;81;21387;-67
2021/07/11 15:42:10;;;;;;;11.93;7.45;;;;;;;28.84;45.64;101158.50;1798533;80;21174;-73
2021/07/11 15:44:42;;;;;;;11.78;6.67;;;;;;;28.83;45.32;101151.98;1767494;81;21317;-72
2021/07/11 15:47:17;;;;;;;12.55;7.22;;;;;;;28.85;45.59;101157.33;1818159;78;21818;-72
2021/07/11 15:49:56;;;;;;;13.53;6.95;;;;;;;28.84;45.40;101155.06;1805367;78;21175;-75
2021/07/11 15:52:29;;;;;;;13.78;7.20;;;;;;;28.84;45.61;101160.78;1805653;79;21309;-69
2021/07/11 15:55:05;;;;;;;12.45;6.40;;;;;;;28.82;45.43;101159.48;1805214;79;21163;-72
2021/07/11 15:57:38;;;;;;;7.90;5.70;;;;;;;28.78;45.09;101164.28;1805241;79;21214;-70
2021/07/11 16:00:12;;;;;;;12.13;7.03;;;;;;;28.72;45.20;101163.75;1810787;78;21996;-73
2021/07/11 16:02:45;;;;;;;14.18;6.30;;;;;;;28.67;45.56;101172.60;1822172;78;21408;-69
2021/07/11 16:05:17;;;;;;;;;;;;;;;28.60;45.40;101169.57;1807708;78;21320;-70
2021/07/11 16:07:51;;;;;;;17.65;6.83;;;;;;;28.52;45.41;101180.61;1768106;80;20196;-71
2021/07/11 16:10:25;;;;;;;10.00;6.67;;;;;;;28.42;45.77;101186.86;1805855;78;21353;-73